sensor_id;sensor_type;location;lat;lon;timestamp;pressure;altitude;pressure_sealevel;temperature;humidity
15444;BME280;7822;48.146;11.576;2023-05-25T00:02:04;95410.28;;;16.24;61.12
15444;BME280;7822;48.146;11.576;2023-05-25T00:04:32;95411.78;;;16.26;61.41
15444;BME280;7822;48.146;11.576;2023-05-25T00:07:01;95409.16;;;16.26;61.46
15444;BME280;7822;48.146;11.576;2023-05-25T00:09:28;95421.13;;;16.29;61.62
15444;BME280;7822;48.146;11.576;2023-05-25T00:11:56;95415.88;;;16.29;61.71
15444;BME280;7822;48.146;11.576;2023-05-25T00:14:24;95420.97;;;16.30;62.03
15444;BME280;7822;48.146;11.576;2023-05-25T00:16:52;95421.78;;;16.31;62.08
15444;BME280;7822;48.146;11.576;2023-05-25T00:19:21;95412.97;;;16.32;62.32
15444;BME280;7822;48.146;11.576;2023-05-25T00:21:50;95407.75;;;16.32;62.22
15444;BME280;7822;48.146;11.576;2023-05-25T00:24:17;95414.59;;;16.33;62.36
15444;BME280;7822;48.146;11.576;2023-05-25T00:26:45;95404.97;;;16.33;62.36
15444;BME280;7822;48.146;11.576;2023-05-25T00:29:12;95397.94;;;16.34;62.52
15444;BME280;7822;48.146;11.576;2023-05-25T00:31:40;95395.31;;;16.34;62.74
15444;BME280;7822;48.146;11.576;2023-05-25T00:34:07;95396.13;;;16.35;62.61
15444;BME280;7822;48.146;11.576;2023-05-25T00:36:36;95389.91;;;16.36;62.79
15444;BME280;7822;48.146;11.576;2023-05-25T00:39:04;95393.34;;;16.36;62.93
15444;BME280;7822;48.146;11.576;2023-05-25T00:41:31;95388.94;;;16.37;63.02
15444;BME280;7822;48.146;11.576;2023-05-25T00:44:00;95392.38;;;16.37;63.07
15444;BME280;7822;48.146;11.576;2023-05-25T00:46:27;95384.50;;;16.37;63.15
15444;BME280;7822;48.146;11.576;2023-05-25T00:48:55;95388.78;;;16.38;63.33
15444;BME280;7822;48.146;11.576;2023-05-25T00:51:23;95381.75;;;16.39;63.35
15444;BME280;7822;48.146;11.576;2023-05-25T00:53:53;95379.94;;;16.39;63.31
15444;BME280;7822;48.146;11.576;2023-05-25T00:56:21;95385.03;;;16.41;63.42
15444;BME280;7822;48.146;11.576;2023-05-25T00:58:50;95379.81;;;16.41;63.54
15444;BME280;7822;48.146;11.576;2023-05-25T01:01:19;95384.06;;;16.42;63.58
15444;BME280;7822;48.146;11.576;2023-05-25T01:03:50;95379.63;;;16.42;63.70
15444;BME280;7822;48.146;11.576;2023-05-25T01:06:19;95387.50;;;16.42;63.72
15444;BME280;7822;48.146;11.576;2023-05-25T01:08:48;95389.16;;;16.43;63.82
15444;BME280;7822;48.146;11.576;2023-05-25T01:11:20;95393.41;;;16.44;63.92
15444;BME280;7822;48.146;11.576;2023-05-25T01:13:51;95400.44;;;16.44;64.08
15444;BME280;7822;48.146;11.576;2023-05-25T01:16:19;95402.09;;;16.45;64.12
15444;BME280;7822;48.146;11.576;2023-05-25T01:18:47;95392.44;;;16.45;64.17
15444;BME280;7822;48.146;11.576;2023-05-25T01:21:20;95391.63;;;16.45;64.21
15444;BME280;7822;48.146;11.576;2023-05-25T01:23:50;95392.44;;;16.45;64.27
15444;BME280;7822;48.146;11.576;2023-05-25T01:26:19;95386.38;;;16.45;64.12
15444;BME280;7822;48.146;11.576;2023-05-25T01:28:48;95381.97;;;16.45;64.35
15444;BME280;7822;48.146;11.576;2023-05-25T01:31:17;95383.59;;;16.46;64.52
15444;BME280;7822;48.146;11.576;2023-05-25T01:33:47;95394.06;;;16.46;64.48
15444;BME280;7822;48.146;11.576;2023-05-25T01:36:16;95395.84;;;16.46;64.41
15444;BME280;7822;48.146;11.576;2023-05-25T01:38:45;95400.13;;;16.47;64.56
15444;BME280;7822;48.146;11.576;2023-05-25T01:41:12;95394.91;;;16.47;64.63
15444;BME280;7822;48.146;11.576;2023-05-25T01:43:40;95395.72;;;16.47;64.71
15444;BME280;7822;48.146;11.576;2023-05-25T01:46:09;95394.06;;;16.46;64.54
15444;BME280;7822;48.146;11.576;2023-05-25T01:48:39;95389.66;;;16.47;64.82
15444;BME280;7822;48.146;11.576;2023-05-25T01:51:10;95395.72;;;16.47;64.73
15444;BME280;7822;48.146;11.576;2023-05-25T01:53:47;95393.94;;;16.48;64.82
15444;BME280;7822;48.146;11.576;2023-05-25T01:56:17;95387.88;;;16.47;64.87
15444;BME280;7822;48.146;11.576;2023-05-25T01:58:45;95390.47;;;16.47;64.88
15444;BME280;7822;48.146;11.576;2023-05-25T02:01:13;95394.91;;;16.47;64.88
15444;BME280;7822;48.146;11.576;2023-05-25T02:03:41;95397.34;;;16.48;64.98
15444;BME280;7822;48.146;11.576;2023-05-25T02:06:10;95399.97;;;16.48;64.99
15444;BME280;7822;48.146;11.576;2023-05-25T02:08:38;95395.56;;;16.49;65.09
15444;BME280;7822;48.146;11.576;2023-05-25T02:11:06;95397.34;;;16.48;64.90
15444;BME280;7822;48.146;11.576;2023-05-25T02:13:35;95386.88;;;16.48;65.18
15444;BME280;7822;48.146;11.576;2023-05-25T02:16:03;95383.28;;;16.49;65.22
15444;BME280;7822;48.146;11.576;2023-05-25T02:18:30;95394.72;;;16.48;65.22
15444;BME280;7822;48.146;11.576;2023-05-25T02:20:59;95386.88;;;16.48;65.22
15444;BME280;7822;48.146;11.576;2023-05-25T02:23:26;95383.28;;;16.49;65.22
15444;BME280;7822;48.146;11.576;2023-05-25T02:25:54;95378.06;;;16.49;65.38
15444;BME280;7822;48.146;11.576;2023-05-25T02:28:23;95370.19;;;16.49;65.42
15444;BME280;7822;48.146;11.576;2023-05-25T02:30:51;95372.69;;;16.51;65.46
15444;BME280;7822;48.146;11.576;2023-05-25T02:33:18;95371.03;;;16.50;65.44
15444;BME280;7822;48.146;11.576;2023-05-25T02:35:46;95384.13;;;16.50;65.53
15444;BME280;7822;48.146;11.576;2023-05-25T02:38:13;95373.66;;;16.50;65.63
15444;BME280;7822;48.146;11.576;2023-05-25T02:40:41;95358.75;;;16.50;65.78
15444;BME280;7822;48.146;11.576;2023-05-25T02:43:08;95366.63;;;16.50;65.75
15444;BME280;7822;48.146;11.576;2023-05-25T02:45:37;95354.22;;;16.52;65.74
15444;BME280;7822;48.146;11.576;2023-05-25T02:48:05;95358.63;;;16.52;65.91
15444;BME280;7822;48.146;11.576;2023-05-25T02:50:32;95357.81;;;16.51;65.90
15444;BME280;7822;48.146;11.576;2023-05-25T02:53:00;95364.69;;;16.52;66.01
15444;BME280;7822;48.146;11.576;2023-05-25T02:55:27;95374.34;;;16.52;66.05
15444;BME280;7822;48.146;11.576;2023-05-25T02:57:55;95375.16;;;16.52;65.98
15444;BME280;7822;48.146;11.576;2023-05-25T03:00:23;95366.50;;;16.52;66.00
15444;BME280;7822;48.146;11.576;2023-05-25T03:02:52;95369.09;;;16.52;65.95
15444;BME280;7822;48.146;11.576;2023-05-25T03:05:19;95370.72;;;16.53;66.06
15444;BME280;7822;48.146;11.576;2023-05-25T03:07:47;95368.94;;;16.53;66.07
15444;BME280;7822;48.146;11.576;2023-05-25T03:10:14;95372.38;;;16.54;66.08
15444;BME280;7822;48.146;11.576;2023-05-25T03:12:42;95377.78;;;16.52;66.26
15444;BME280;7822;48.146;11.576;2023-05-25T03:15:10;95380.25;;;16.54;66.23
15444;BME280;7822;48.146;11.576;2023-05-25T03:17:38;95387.28;;;16.53;66.14
15444;BME280;7822;48.146;11.576;2023-05-25T03:20:08;95376.97;;;16.52;66.24
15444;BME280;7822;48.146;11.576;2023-05-25T03:22:37;95379.41;;;16.53;66.39
15444;BME280;7822;48.146;11.576;2023-05-25T03:25:05;95375.16;;;16.52;66.42
15444;BME280;7822;48.146;11.576;2023-05-25T03:27:32;95375.00;;;16.54;66.44
15444;BME280;7822;48.146;11.576;2023-05-25T03:30:00;95380.25;;;16.54;66.34
15444;BME280;7822;48.146;11.576;2023-05-25T03:32:27;95380.25;;;16.54;66.49
15444;BME280;7822;48.146;11.576;2023-05-25T03:34:55;95377.78;;;16.52;66.51
15444;BME280;7822;48.146;11.576;2023-05-25T03:37:24;95375.84;;;16.54;66.57
15444;BME280;7822;48.146;11.576;2023-05-25T03:39:51;95377.63;;;16.54;66.37
15444;BME280;7822;48.146;11.576;2023-05-25T03:42:19;95383.69;;;16.54;66.55
15444;BME280;7822;48.146;11.576;2023-05-25T03:44:46;95382.03;;;16.53;66.54
15444;BME280;7822;48.146;11.576;2023-05-25T03:47:14;95390.72;;;16.54;66.60
15444;BME280;7822;48.146;11.576;2023-05-25T03:49:41;95377.78;;;16.52;66.66
15444;BME280;7822;48.146;11.576;2023-05-25T03:52:09;95395.97;;;16.54;66.75
15444;BME280;7822;48.146;11.576;2023-05-25T03:54:38;95382.69;;;16.55;66.72
15444;BME280;7822;48.146;11.576;2023-05-25T03:57:05;95388.94;;;16.54;66.81
15444;BME280;7822;48.146;11.576;2023-05-25T03:59:33;95392.34;;;16.55;66.68
15444;BME280;7822;48.146;11.576;2023-05-25T04:02:00;95394.16;;;16.54;66.92
15444;BME280;7822;48.146;11.576;2023-05-25T04:04:28;95393.16;;;16.55;67.03
15444;BME280;7822;48.146;11.576;2023-05-25T04:06:55;95397.44;;;16.56;66.84
15444;BME280;7822;48.146;11.576;2023-05-25T04:09:23;95407.09;;;16.56;66.84
15444;BME280;7822;48.146;11.576;2023-05-25T04:11:52;95410.53;;;16.56;66.92
15444;BME280;7822;48.146;11.576;2023-05-25T04:14:19;95414.78;;;16.57;66.96
15444;BME280;7822;48.146;11.576;2023-05-25T04:16:47;95408.59;;;16.58;67.06
15444;BME280;7822;48.146;11.576;2023-05-25T04:19:14;95413.00;;;16.58;67.04
15444;BME280;7822;48.146;11.576;2023-05-25T04:21:42;95411.22;;;16.58;67.23
15444;BME280;7822;48.146;11.576;2023-05-25T04:24:09;95412.84;;;16.59;67.07
15444;BME280;7822;48.146;11.576;2023-05-25T04:26:37;95418.06;;;16.59;67.12
15444;BME280;7822;48.146;11.576;2023-05-25T04:29:07;95413.66;;;16.60;67.25
15444;BME280;7822;48.146;11.576;2023-05-25T04:31:35;95404.19;;;16.59;67.19
15444;BME280;7822;48.146;11.576;2023-05-25T04:34:04;95413.66;;;16.60;67.20
15444;BME280;7822;48.146;11.576;2023-05-25T04:36:31;95406.81;;;16.59;67.17
15444;BME280;7822;48.146;11.576;2023-05-25T04:38:59;95409.41;;;16.59;67.20
15444;BME280;7822;48.146;11.576;2023-05-25T04:41:29;95406.81;;;16.59;67.34
15444;BME280;7822;48.146;11.576;2023-05-25T04:43:56;95406.81;;;16.59;67.30
15444;BME280;7822;48.146;11.576;2023-05-25T04:46:36;95404.97;;;16.59;67.33
15444;BME280;7822;48.146;11.576;2023-05-25T04:49:04;95408.44;;;16.60;67.35
15444;BME280;7822;48.146;11.576;2023-05-25T04:51:33;95409.41;;;16.59;67.47
15444;BME280;7822;48.146;11.576;2023-05-25T04:54:02;95410.22;;;16.59;67.49
15444;BME280;7822;48.146;11.576;2023-05-25T04:56:29;95407.59;;;16.59;67.55
15444;BME280;7822;48.146;11.576;2023-05-25T04:58:57;95411.22;;;16.58;67.58
15444;BME280;7822;48.146;11.576;2023-05-25T05:01:24;95419.06;;;16.58;67.60
15444;BME280;7822;48.146;11.576;2023-05-25T05:03:53;95418.06;;;16.59;67.71
15444;BME280;7822;48.146;11.576;2023-05-25T05:06:21;95418.06;;;16.59;67.73
15444;BME280;7822;48.146;11.576;2023-05-25T05:08:50;95433.13;;;16.57;67.70
15444;BME280;7822;48.146;11.576;2023-05-25T05:11:18;95431.34;;;16.58;67.61
15444;BME280;7822;48.146;11.576;2023-05-25T05:13:45;95433.94;;;16.58;67.70
15444;BME280;7822;48.146;11.576;2023-05-25T05:16:13;95441.81;;;16.58;67.77
15444;BME280;7822;48.146;11.576;2023-05-25T05:18:41;95436.56;;;16.58;67.73
15444;BME280;7822;48.146;11.576;2023-05-25T05:21:09;95433.13;;;16.57;67.87
15444;BME280;7822;48.146;11.576;2023-05-25T05:23:37;95450.50;;;16.58;67.82
15444;BME280;7822;48.146;11.576;2023-05-25T05:26:05;95447.06;;;16.58;67.69
15444;BME280;7822;48.146;11.576;2023-05-25T05:28:36;95454.75;;;16.59;68.03
15444;BME280;7822;48.146;11.576;2023-05-25T05:31:03;95453.13;;;16.58;68.04
15444;BME280;7822;48.146;11.576;2023-05-25T05:33:32;95453.94;;;16.59;68.02
15444;BME280;7822;48.146;11.576;2023-05-25T05:35:59;95454.75;;;16.59;68.05
15444;BME280;7822;48.146;11.576;2023-05-25T05:38:29;95443.47;;;16.59;67.97
15444;BME280;7822;48.146;11.576;2023-05-25T05:40:56;95450.50;;;16.58;68.00
15444;BME280;7822;48.146;11.576;2023-05-25T05:43:24;95451.31;;;16.59;68.04
15444;BME280;7822;48.146;11.576;2023-05-25T05:45:52;95448.72;;;16.59;67.90
15444;BME280;7822;48.146;11.576;2023-05-25T05:48:19;95455.56;;;16.60;68.03
15444;BME280;7822;48.146;11.576;2023-05-25T05:50:47;95461.66;;;16.60;68.13
15444;BME280;7822;48.146;11.576;2023-05-25T05:53:14;95466.88;;;16.60;68.07
15444;BME280;7822;48.146;11.576;2023-05-25T05:55:43;95460.66;;;16.61;67.96
15444;BME280;7822;48.146;11.576;2023-05-25T05:58:15;95455.41;;;16.61;68.18
15444;BME280;7822;48.146;11.576;2023-05-25T06:00:42;95464.25;;;16.60;68.24
15444;BME280;7822;48.146;11.576;2023-05-25T06:03:10;95459.03;;;16.60;68.14
15444;BME280;7822;48.146;11.576;2023-05-25T06:05:37;95447.72;;;16.60;68.24
15444;BME280;7822;48.146;11.576;2023-05-25T06:08:05;95456.41;;;16.60;68.31
15444;BME280;7822;48.146;11.576;2023-05-25T06:10:34;95459.84;;;16.61;68.17
15444;BME280;7822;48.146;11.576;2023-05-25T06:13:03;95460.81;;;16.60;68.11
15444;BME280;7822;48.146;11.576;2023-05-25T06:15:32;95468.66;;;16.60;68.12
15444;BME280;7822;48.146;11.576;2023-05-25T06:18:00;95471.28;;;16.60;68.34
15444;BME280;7822;48.146;11.576;2023-05-25T06:20:28;95471.28;;;16.60;68.27
15444;BME280;7822;48.146;11.576;2023-05-25T06:22:56;95473.09;;;16.59;68.30
15444;BME280;7822;48.146;11.576;2023-05-25T06:25:23;95472.13;;;16.60;68.17
15444;BME280;7822;48.146;11.576;2023-05-25T06:27:51;95469.66;;;16.59;68.26
15444;BME280;7822;48.146;11.576;2023-05-25T06:30:20;95472.13;;;16.60;68.31
15444;BME280;7822;48.146;11.576;2023-05-25T06:32:47;95474.06;;;16.58;68.45
15444;BME280;7822;48.146;11.576;2023-05-25T06:35:15;95471.28;;;16.60;68.46
15444;BME280;7822;48.146;11.576;2023-05-25T06:37:45;95473.09;;;16.59;68.41
15444;BME280;7822;48.146;11.576;2023-05-25T06:40:13;95474.91;;;16.59;68.49
15444;BME280;7822;48.146;11.576;2023-05-25T06:42:40;95479.16;;;16.60;68.47
15444;BME280;7822;48.146;11.576;2023-05-25T06:45:08;95476.69;;;16.58;68.55
15444;BME280;7822;48.146;11.576;2023-05-25T06:47:37;95481.09;;;16.58;68.49
15444;BME280;7822;48.146;11.576;2023-05-25T06:50:05;95486.19;;;16.59;68.46
15444;BME280;7822;48.146;11.576;2023-05-25T06:52:33;95494.03;;;16.59;68.53
15444;BME280;7822;48.146;11.576;2023-05-25T06:55:01;95491.41;;;16.59;68.54
15444;BME280;7822;48.146;11.576;2023-05-25T06:57:29;95497.47;;;16.60;68.55
15444;BME280;7822;48.146;11.576;2023-05-25T06:59:56;95494.03;;;16.59;68.50
15444;BME280;7822;48.146;11.576;2023-05-25T07:02:24;95493.06;;;16.60;68.44
15444;BME280;7822;48.146;11.576;2023-05-25T07:04:53;95488.78;;;16.59;68.57
15444;BME280;7822;48.146;11.576;2023-05-25T07:07:20;95496.34;;;16.62;68.62
15444;BME280;7822;48.146;11.576;2023-05-25T07:09:48;95486.84;;;16.61;68.53
15444;BME280;7822;48.146;11.576;2023-05-25T07:12:16;95491.13;;;16.62;68.46
15444;BME280;7822;48.146;11.576;2023-05-25T07:14:43;95494.56;;;16.63;68.50
15444;BME280;7822;48.146;11.576;2023-05-25T07:17:13;95491.94;;;16.63;68.50
15444;BME280;7822;48.146;11.576;2023-05-25T07:19:40;95496.19;;;16.64;68.60
15444;BME280;7822;48.146;11.576;2023-05-25T07:22:09;95504.88;;;16.64;68.63
15444;BME280;7822;48.146;11.576;2023-05-25T07:24:37;95505.72;;;16.65;68.48
15444;BME280;7822;48.146;11.576;2023-05-25T07:27:05;95498.69;;;16.65;68.56
15444;BME280;7822;48.146;11.576;2023-05-25T07:29:33;95500.47;;;16.65;68.56
15444;BME280;7822;48.146;11.576;2023-05-25T07:32:00;95485.59;;;16.65;68.70
15444;BME280;7822;48.146;11.576;2023-05-25T07:34:28;95495.22;;;16.65;68.63
15444;BME280;7822;48.146;11.576;2023-05-25T07:36:55;95503.09;;;16.65;68.74
15444;BME280;7822;48.146;11.576;2023-05-25T07:39:24;95507.34;;;16.66;68.63
15444;BME280;7822;48.146;11.576;2023-05-25T07:41:52;95509.16;;;16.65;68.68
15444;BME280;7822;48.146;11.576;2023-05-25T07:44:19;95511.78;;;16.65;68.82
15444;BME280;7822;48.146;11.576;2023-05-25T07:46:47;95504.88;;;16.64;68.79
15444;BME280;7822;48.146;11.576;2023-05-25T07:49:14;95514.41;;;16.65;68.78
15444;BME280;7822;48.146;11.576;2023-05-25T07:51:42;95516.19;;;16.65;68.81
15444;BME280;7822;48.146;11.576;2023-05-25T07:54:10;95521.44;;;16.65;68.80
15444;BME280;7822;48.146;11.576;2023-05-25T07:56:39;95522.41;;;16.64;68.88
15444;BME280;7822;48.146;11.576;2023-05-25T07:59:07;95524.88;;;16.65;69.05
15444;BME280;7822;48.146;11.576;2023-05-25T08:01:35;95522.25;;;16.65;68.96
15444;BME280;7822;48.146;11.576;2023-05-25T08:04:04;95524.88;;;16.65;68.86
15444;BME280;7822;48.146;11.576;2023-05-25T08:06:31;95521.44;;;16.65;68.85
15444;BME280;7822;48.146;11.576;2023-05-25T08:08:59;95523.22;;;16.64;68.91
15444;BME280;7822;48.146;11.576;2023-05-25T08:11:27;95522.25;;;16.65;69.02
15444;BME280;7822;48.146;11.576;2023-05-25T08:13:55;95532.88;;;16.64;68.96
15444;BME280;7822;48.146;11.576;2023-05-25T08:16:25;95534.66;;;16.63;68.99
15444;BME280;7822;48.146;11.576;2023-05-25T08:18:53;95541.56;;;16.64;68.88
15444;BME280;7822;48.146;11.576;2023-05-25T08:23:48;95545.00;;;16.65;68.98
15444;BME280;7822;48.146;11.576;2023-05-25T08:26:16;95538.09;;;16.64;69.00
15444;BME280;7822;48.146;11.576;2023-05-25T08:29:05;95544.19;;;16.64;68.99
15444;BME280;7822;48.146;11.576;2023-05-25T08:31:33;95537.16;;;16.65;69.09
15444;BME280;7822;48.146;11.576;2023-05-25T08:34:01;95544.19;;;16.64;69.02
15444;BME280;7822;48.146;11.576;2023-05-25T08:36:28;95545.00;;;16.65;69.09
15444;BME280;7822;48.146;11.576;2023-05-25T08:38:59;95550.25;;;16.65;69.01
15444;BME280;7822;48.146;11.576;2023-05-25T08:41:26;95544.19;;;16.64;69.10
15444;BME280;7822;48.146;11.576;2023-05-25T08:43:54;95545.00;;;16.65;68.98
15444;BME280;7822;48.146;11.576;2023-05-25T08:46:27;95548.47;;;16.65;69.20
15444;BME280;7822;48.146;11.576;2023-05-25T08:48:56;95547.47;;;16.66;69.06
15444;BME280;7822;48.146;11.576;2023-05-25T08:51:25;95551.06;;;16.65;69.19
15444;BME280;7822;48.146;11.576;2023-05-25T08:53:52;95563.19;;;16.66;69.18
15444;BME280;7822;48.146;11.576;2023-05-25T08:56:23;95557.94;;;16.66;69.21
15444;BME280;7822;48.146;11.576;2023-05-25T08:58:55;95563.19;;;16.66;69.16
15444;BME280;7822;48.146;11.576;2023-05-25T09:01:25;95559.72;;;16.66;69.08
15444;BME280;7822;48.146;11.576;2023-05-25T09:03:55;95569.25;;;16.67;69.22
15444;BME280;7822;48.146;11.576;2023-05-25T09:06:23;95576.28;;;16.66;69.34
15444;BME280;7822;48.146;11.576;2023-05-25T09:08:52;95564.97;;;16.66;69.24
15444;BME280;7822;48.146;11.576;2023-05-25T09:11:19;95565.81;;;16.66;69.25
15444;BME280;7822;48.146;11.576;2023-05-25T09:14:04;95567.59;;;16.66;69.28
15444;BME280;7822;48.146;11.576;2023-05-25T09:16:33;95573.66;;;16.66;69.37
15444;BME280;7822;48.146;11.576;2023-05-25T09:19:03;95576.28;;;16.66;69.34
15444;BME280;7822;48.146;11.576;2023-05-25T09:21:30;95581.53;;;16.66;69.44
15444;BME280;7822;48.146;11.576;2023-05-25T09:23:58;95581.53;;;16.66;69.36
15444;BME280;7822;48.146;11.576;2023-05-25T09:26:26;95585.13;;;16.65;69.50
15444;BME280;7822;48.146;11.576;2023-05-25T09:28:53;95582.50;;;16.65;69.53
15444;BME280;7822;48.146;11.576;2023-05-25T09:31:22;95584.31;;;16.65;69.42
15444;BME280;7822;48.146;11.576;2023-05-25T09:33:51;95587.75;;;16.65;69.47
15444;BME280;7822;48.146;11.576;2023-05-25T09:36:25;95594.63;;;16.66;69.43
15444;BME280;7822;48.146;11.576;2023-05-25T09:38:53;95600.84;;;16.65;69.47
15444;BME280;7822;48.146;11.576;2023-05-25T09:41:21;95598.22;;;16.65;69.50
15444;BME280;7822;48.146;11.576;2023-05-25T09:43:52;95602.47;;;16.66;69.51
15444;BME280;7822;48.146;11.576;2023-05-25T09:46:36;95607.72;;;16.66;69.51
15444;BME280;7822;48.146;11.576;2023-05-25T09:49:06;95605.25;;;16.65;69.53
15444;BME280;7822;48.146;11.576;2023-05-25T09:51:34;95599.03;;;16.66;69.57
15444;BME280;7822;48.146;11.576;2023-05-25T09:54:03;95607.88;;;16.65;69.64
15444;BME280;7822;48.146;11.576;2023-05-25T09:56:31;95600.84;;;16.65;69.59
15444;BME280;7822;48.146;11.576;2023-05-25T09:58:59;95599.19;;;16.64;69.62
15444;BME280;7822;48.146;11.576;2023-05-25T10:01:26;95590.38;;;16.65;69.71
15444;BME280;7822;48.146;11.576;2023-05-25T10:03:54;95609.66;;;16.64;69.62
15444;BME280;7822;48.146;11.576;2023-05-25T10:06:37;95611.31;;;16.65;69.59
15444;BME280;7822;48.146;11.576;2023-05-25T10:09:05;95605.25;;;16.65;69.75
15444;BME280;7822;48.146;11.576;2023-05-25T10:11:33;95600.84;;;16.65;69.62
15444;BME280;7822;48.146;11.576;2023-05-25T10:14:01;95609.66;;;16.64;69.54
15444;BME280;7822;48.146;11.576;2023-05-25T10:16:32;95613.94;;;16.65;69.33
15444;BME280;7822;48.146;11.576;2023-05-25T10:19:02;95612.13;;;16.66;69.74
15444;BME280;7822;48.146;11.576;2023-05-25T10:21:30;95612.97;;;16.66;69.70
15444;BME280;7822;48.146;11.576;2023-05-25T10:24:02;95613.94;;;16.65;69.74
15444;BME280;7822;48.146;11.576;2023-05-25T10:26:32;95606.88;;;16.66;69.79
15444;BME280;7822;48.146;11.576;2023-05-25T10:29:02;95612.97;;;16.66;69.75
15444;BME280;7822;48.146;11.576;2023-05-25T10:31:30;95612.13;;;16.66;69.65
15444;BME280;7822;48.146;11.576;2023-05-25T10:33:59;95615.56;;;16.66;69.72
15444;BME280;7822;48.146;11.576;2023-05-25T10:36:27;95613.78;;;16.67;69.77
15444;BME280;7822;48.146;11.576;2023-05-25T10:38:55;95609.50;;;16.66;69.82
15444;BME280;7822;48.146;11.576;2023-05-25T10:41:25;95606.88;;;16.66;69.84
15444;BME280;7822;48.146;11.576;2023-05-25T10:43:53;95599.03;;;16.66;69.88
15444;BME280;7822;48.146;11.576;2023-05-25T10:46:20;95599.84;;;16.66;69.79
15444;BME280;7822;48.146;11.576;2023-05-25T10:48:49;95603.47;;;16.65;69.70
15444;BME280;7822;48.146;11.576;2023-05-25T10:51:18;95612.97;;;16.66;69.75
15444;BME280;7822;48.146;11.576;2023-05-25T10:53:46;95602.47;;;16.66;69.97
15444;BME280;7822;48.146;11.576;2023-05-25T10:56:14;95611.31;;;16.65;69.92
15444;BME280;7822;48.146;11.576;2023-05-25T10:58:43;95606.09;;;16.65;69.83
15444;BME280;7822;48.146;11.576;2023-05-25T11:01:13;95604.28;;;16.66;69.87
15444;BME280;7822;48.146;11.576;2023-05-25T11:03:54;95600.84;;;16.65;69.93
15444;BME280;7822;48.146;11.576;2023-05-25T11:06:23;95598.22;;;16.65;69.88
15444;BME280;7822;48.146;11.576;2023-05-25T11:09:22;95608.72;;;16.65;69.93
15444;BME280;7822;48.146;11.576;2023-05-25T11:11:59;95611.31;;;16.65;70.00
15444;BME280;7822;48.146;11.576;2023-05-25T11:14:30;95608.72;;;16.65;69.90
15444;BME280;7822;48.146;11.576;2023-05-25T11:17:05;95606.88;;;16.66;69.98
15444;BME280;7822;48.146;11.576;2023-05-25T11:19:43;95613.13;;;16.65;70.19
15444;BME280;7822;48.146;11.576;2023-05-25T11:22:16;95609.50;;;16.66;70.02
15444;BME280;7822;48.146;11.576;2023-05-25T11:24:45;95610.50;;;16.65;70.01
15444;BME280;7822;48.146;11.576;2023-05-25T11:27:13;95607.03;;;16.64;70.21
15444;BME280;7822;48.146;11.576;2023-05-25T11:29:42;95607.88;;;16.65;70.12
15444;BME280;7822;48.146;11.576;2023-05-25T11:32:13;95599.19;;;16.64;70.10
15444;BME280;7822;48.146;11.576;2023-05-25T11:34:41;95593.13;;;16.64;70.14
15444;BME280;7822;48.146;11.576;2023-05-25T11:37:12;95600.03;;;16.65;70.09
15444;BME280;7822;48.146;11.576;2023-05-25T11:39:45;95599.19;;;16.64;70.09
15444;BME280;7822;48.146;11.576;2023-05-25T11:42:12;95595.59;;;16.65;70.15
15444;BME280;7822;48.146;11.576;2023-05-25T11:44:43;95596.56;;;16.64;70.08
15444;BME280;7822;48.146;11.576;2023-05-25T11:47:11;95593.78;;;16.66;70.38
15444;BME280;7822;48.146;11.576;2023-05-25T11:49:40;95585.13;;;16.65;70.19
15444;BME280;7822;48.146;11.576;2023-05-25T11:52:09;95583.47;;;16.64;70.24
15444;BME280;7822;48.146;11.576;2023-05-25T11:54:37;95590.38;;;16.65;70.20
15444;BME280;7822;48.146;11.576;2023-05-25T11:57:12;95590.38;;;16.65;70.11
15444;BME280;7822;48.146;11.576;2023-05-25T11:59:40;95585.94;;;16.66;70.18
15444;BME280;7822;48.146;11.576;2023-05-25T12:02:15;95584.13;;;16.66;70.12
15444;BME280;7822;48.146;11.576;2023-05-25T12:04:51;95582.50;;;16.65;70.21
15444;BME280;7822;48.146;11.576;2023-05-25T12:07:19;95578.06;;;16.66;70.10
15444;BME280;7822;48.146;11.576;2023-05-25T12:09:46;95581.53;;;16.66;70.32
15444;BME280;7822;48.146;11.576;2023-05-25T12:12:14;95577.28;;;16.65;70.23
15444;BME280;7822;48.146;11.576;2023-05-25T12:14:45;95578.91;;;16.66;70.32
15444;BME280;7822;48.146;11.576;2023-05-25T12:17:14;95581.53;;;16.66;70.25
15444;BME280;7822;48.146;11.576;2023-05-25T12:19:42;95578.91;;;16.66;70.32
15444;BME280;7822;48.146;11.576;2023-05-25T12:22:11;95575.44;;;16.66;70.34
15444;BME280;7822;48.146;11.576;2023-05-25T12:24:39;95580.69;;;16.66;70.30
15444;BME280;7822;48.146;11.576;2023-05-25T12:27:15;95576.44;;;16.65;70.17
15444;BME280;7822;48.146;11.576;2023-05-25T12:29:44;95573.66;;;16.66;70.36
15444;BME280;7822;48.146;11.576;2023-05-25T12:32:12;95574.66;;;16.65;70.41
15444;BME280;7822;48.146;11.576;2023-05-25T12:34:42;95572.03;;;16.65;70.43
15444;BME280;7822;48.146;11.576;2023-05-25T12:37:16;95577.28;;;16.65;70.29
15444;BME280;7822;48.146;11.576;2023-05-25T12:39:44;95574.66;;;16.65;70.35
15444;BME280;7822;48.146;11.576;2023-05-25T12:42:11;95579.91;;;16.65;70.39
15444;BME280;7822;48.146;11.576;2023-05-25T12:44:40;95570.22;;;16.66;70.39
15444;BME280;7822;48.146;11.576;2023-05-25T12:47:08;95573.81;;;16.65;70.34
15444;BME280;7822;48.146;11.576;2023-05-25T12:49:36;95574.66;;;16.65;70.27
15444;BME280;7822;48.146;11.576;2023-05-25T12:52:05;95564.16;;;16.65;70.31
15444;BME280;7822;48.146;11.576;2023-05-25T12:54:33;95569.41;;;16.65;70.44
15444;BME280;7822;48.146;11.576;2023-05-25T12:57:01;95564.97;;;16.66;70.46
15444;BME280;7822;48.146;11.576;2023-05-25T12:59:31;95558.09;;;16.65;70.31
15444;BME280;7822;48.146;11.576;2023-05-25T13:01:58;95556.31;;;16.65;70.58
15444;BME280;7822;48.146;11.576;2023-05-25T13:04:26;95556.31;;;16.65;70.50
15444;BME280;7822;48.146;11.576;2023-05-25T13:06:54;95558.09;;;16.65;70.45
15444;BME280;7822;48.146;11.576;2023-05-25T13:09:23;95551.22;;;16.64;70.48
15444;BME280;7822;48.146;11.576;2023-05-25T13:11:52;95559.72;;;16.66;70.53